Jump to content
Holidays
Local
Radar
Windy?

dougimat

Members
  • Content Count

    5
  • Joined

  • Last visited

Community Reputation

19 Good

Profile Information

  • Gender
    Male
  • Location
    Edinburgh
  • Interests
    Music, photography, weather
  • Weather Preferences
    Any!

Recent Profile Visitors

2,799 profile views
  1. dougimat

    Funnel cloud and rope

    Some dramatic skies as a funnel cloud and brief rope appeared beneath dark Cb on a day of intense shower activity. The Cb produced several flashes and rumbles, as well as heavy rainfall over nearby Perth.
  2. Some dramatic skies as a funnel cloud and brief rope appeared beneath dark Cb on a day of intense shower activity. The Cb produced several flashes and rumbles, as well as heavy rainfall over nearby Perth.
  3. dougimat

    Scotland - Weather Chat - Spring 2016 Onwards

    My first post here for several years, despite lurking and (hopefully) learning! My partner and I were in Dunning, Perthshire last Sunday (22nd May), and spotted this funnel cloud, with a brief rope, dropping from a dark Cb nearby. There were a few flashes and rumbles, with heavy rain visible towards Perth. Nowt like a bit of local storm-chasing
  4. My first post here for several years, despite lurking and learning! My partner and I were in Dunning, Perthshire last Sunday (22nd), and spotted this funnel cloud with a small brief rope, dropping from a dark Cb nearby. There were a few flashed and rumbles, with heavy rain visible over Perth. Nowt like a bit of local storm-chasing :)

    StormClouds03.JPG

    1. Paul

      Paul

      Great catch @dougimat !

    2. Dale Hay

      Dale Hay

      Bloomin' 'ell, that's brilliant!

      I do have these two METAR readings from Sunday (though they're based Stornoway [Timed 3:20pm, 3:50pm]), but could've been from the same cell/storm.

      EGPO 221420Z 16003KT 9999 -SHRA FC FEW012 SCT018CB 11/09 Q1007
      EGPO 221450Z VRB03KT 9999 SHRA FEW012 BKN018CB 11/09 Q1007 REFC

      Amazing picture, and a very warm welcome. :)

      Pop a mention to this, if you haven't already, in the Scottish thread. :) Link: https://www.netweather.tv/forum/topic/85239-scotland-weather-chat-spring-2016-onwards/

       

    3. dougimat

      dougimat

      Thanks, Dale and Paul! My intention was to post in the Scottish thread, but couldn't work out how to... will try again later. This pic was taken around 7.15pm, so probably not the same cell. There were two periods of intense convective activity on Sunday in our neck of the woods - around midday, when we left Edinburgh (hail & intense downpours) and again around tea time, when the storm I captured fired up. There were several cells all building rapidly at the same time close to Perth - atmosphere very unstable, obviously. 

×